Terminal Aerodrome Forecast
Issued by NWS

Home | Current Version | Previous Version | Text Only | Print | Product List | Glossary On
Versions: 1 2 3 4 5 6 7 8 9 10 11 12 13 14 15 16 17 18 19 20 21 22
000
FTUS43 KIND 010522
TAFLAF
TAF
KLAF 010522Z 0106/0206 21004KT P6SM SCT060 SCT250
     FM010800 VRB02KT 2SM BR SCT250
      TEMPO 0109/0113 1/4SM FG
     FM011300 23005KT P6SM SCT050
     FM020100 22003KT P6SM SCT250
      AMD LTD TO CLD VIS AND WIND TIL 011300=

USA.gov is the U.S. government's official web portal to all federal, state and local government web resources and services.